Time;durP1;ratioP1;P1;durP2;ratioP2;P2;SDS_P1;SDS_P2;PMS_P1;PMS_P2;Temp;Humidity;BMP_temperature;BMP_pressure;BME280_temperature;BME280_humidity;BME280_pressure;Samples;Min_cycle;Max_cycle;Signal;HPM_P1;HPM_P2
2022/12/26 00:01:30;;;;;;;6.20;5.60;;;9.40;99.90;;;;;;5040239;28;20218;-69
2022/12/26 00:03:56;;;;;;;7.53;6.17;;;9.40;99.90;;;;;;5040118;28;20205;-72
2022/12/26 00:06:26;;;;;;;6.27;5.67;;;9.40;99.90;;;;;;5026973;28;20199;-75
2022/12/26 00:08:53;;;;;;;7.97;6.43;;;9.40;99.90;;;;;;5024420;28;20207;-72
2022/12/26 00:11:19;;;;;;;6.77;6.10;;;9.50;99.90;;;;;;5035593;28;20229;-69
2022/12/26 00:13:45;;;;;;;6.23;5.60;;;9.50;99.90;;;;;;5044770;28;20191;-69
2022/12/26 00:16:19;;;;;;;6.67;6.07;;;9.50;99.90;;;;;;5044083;28;20202;-70
2022/12/26 00:18:45;;;;;;;7.80;6.47;;;9.50;99.90;;;;;;5041373;28;20198;-69
2022/12/26 00:21:13;;;;;;;6.73;6.10;;;9.50;99.90;;;;;;5041078;28;20264;-70
2022/12/26 00:23:39;;;;;;;6.27;5.60;;;9.50;99.90;;;;;;5034271;28;20218;-70
2022/12/26 00:26:11;;;;;;;8.00;6.67;;;9.50;99.90;;;;;;5035804;28;20211;-71
2022/12/26 00:28:37;;;;;;;8.60;6.77;;;9.50;99.90;;;;;;5029919;28;20684;-71
2022/12/26 00:31:08;;;;;;;6.93;6.17;;;9.50;99.90;;;;;;5026560;28;20246;-71
2022/12/26 00:33:35;;;;;;;6.60;5.70;;;9.50;99.90;;;;;;5028266;28;20234;-71
2022/12/26 00:36:17;;;;;;;7.33;6.53;;;9.50;99.90;;;;;;5031766;28;20202;-72
2022/12/26 00:38:44;;;;;;;6.90;6.30;;;9.50;99.90;;;;;;5036079;28;20202;-71
2022/12/26 00:41:11;;;;;;;5.97;5.33;;;9.50;99.90;;;;;;5035488;28;20209;-68
2022/12/26 00:43:37;;;;;;;6.10;5.43;;;9.60;99.90;;;;;;5027999;28;20218;-66
2022/12/26 00:46:03;;;;;;;9.07;6.83;;;9.70;99.90;;;;;;5025531;28;20202;-69
2022/12/26 00:48:29;;;;;;;6.93;5.57;;;9.90;99.90;;;;;;5025625;28;20222;-67
2022/12/26 00:50:55;;;;;;;5.83;5.20;;;9.90;99.90;;;;;;5027937;28;20452;-66
2022/12/26 00:53:22;;;;;;;6.27;5.73;;;10.00;99.90;;;;;;5044827;28;20213;-61
2022/12/26 00:55:48;;;;;;;5.37;4.87;;;10.00;99.90;;;;;;5039701;28;20229;-64
2022/12/26 00:58:14;;;;;;;5.90;5.30;;;10.00;99.90;;;;;;5027027;28;20664;-63
2022/12/26 01:00:40;;;;;;;5.50;4.87;;;9.90;99.90;;;;;;5028834;28;20203;-63
2022/12/26 01:03:06;;;;;;;6.23;4.80;;;9.80;99.90;;;;;;5025662;28;20202;-63
2022/12/26 01:05:32;;;;;;;6.00;4.80;;;9.90;99.90;;;;;;5029621;28;20203;-64
2022/12/26 01:07:58;;;;;;;6.33;4.53;;;9.80;99.90;;;;;;5028424;28;20539;-63
2022/12/26 01:10:23;;;;;;;5.90;5.03;;;9.80;99.90;;;;;;5026434;28;20228;-63
2022/12/26 01:12:49;;;;;;;7.23;5.20;;;9.80;99.90;;;;;;5028677;28;20203;-65
2022/12/26 01:15:14;;;;;;;7.40;4.97;;;9.80;99.90;;;;;;5028840;28;20203;-65
2022/12/26 01:17:40;;;;;;;6.87;3.87;;;9.80;99.90;;;;;;5028399;28;20206;-63
2022/12/26 01:20:05;;;;;;;6.20;5.13;;;9.80;99.90;;;;;;5028354;28;20261;-65
2022/12/26 01:22:31;;;;;;;8.00;4.30;;;9.80;99.90;;;;;;5026842;28;20211;-64
2022/12/26 01:24:57;;;;;;;5.37;4.53;;;9.80;99.90;;;;;;5026570;28;20705;-63
2022/12/26 01:27:24;;;;;;;7.03;4.67;;;9.80;99.90;;;;;;5029812;28;20206;-63
2022/12/26 01:29:50;;;;;;;5.47;4.80;;;9.80;99.90;;;;;;5027570;28;20198;-63
2022/12/26 01:32:15;;;;;;;4.90;4.03;;;9.70;99.90;;;;;;5027137;28;20634;-63
2022/12/26 01:34:41;;;;;;;6.03;4.47;;;9.80;99.90;;;;;;5027379;28;20743;-61
2022/12/26 01:37:07;;;;;;;5.10;4.60;;;9.80;99.90;;;;;;5026935;28;20197;-63
2022/12/26 01:39:32;;;;;;;7.50;5.00;;;9.80;99.90;;;;;;5027902;28;20298;-62
2022/12/26 01:41:58;;;;;;;5.00;4.60;;;9.80;99.90;;;;;;5028656;28;20219;-65
2022/12/26 01:45:00;;;;;;;4.97;4.47;;;9.80;99.90;;;;;;5028414;28;20203;-64
2022/12/26 01:47:50;;;;;;;4.97;4.57;;;9.80;99.90;;;;;;5025400;28;20206;-64
2022/12/26 01:50:53;;;;;;;5.07;4.60;;;9.80;99.90;;;;;;5028350;28;20281;-63
2022/12/26 01:53:26;;;;;;;4.80;4.40;;;9.70;99.90;;;;;;5027146;28;20720;-65
2022/12/26 01:56:00;;;;;;;5.33;4.60;;;9.70;99.90;;;;;;5025862;28;20803;-64
2022/12/26 01:58:38;;;;;;;5.10;4.60;;;9.60;99.90;;;;;;5027980;28;20205;-64
2022/12/26 02:01:07;;;;;;;8.90;4.63;;;9.60;99.90;;;;;;5029893;28;20221;-65
2022/12/26 02:06:18;;;;;;;5.87;5.27;;;9.60;99.90;;;;;;5025477;28;20687;-64
2022/12/26 02:08:45;;;;;;;7.50;5.50;;;9.60;99.90;;;;;;5026128;28;20673;-63
2022/12/26 02:11:17;;;;;;;6.73;5.27;;;9.50;99.90;;;;;;5026572;28;20211;-64
2022/12/26 02:13:43;;;;;;;6.90;5.00;;;9.50;99.90;;;;;;5025331;28;21308;-64
2022/12/26 02:16:13;;;;;;;6.17;4.73;;;9.50;99.90;;;;;;5025554;28;20198;-63
2022/12/26 02:18:38;;;;;;;4.93;4.47;;;9.60;99.90;;;;;;5026810;28;20203;-64
2022/12/26 02:21:29;;;;;;;7.20;5.53;;;9.70;99.90;;;;;;5027380;28;20416;-63
2022/12/26 02:24:27;;;;;;;6.73;5.17;;;9.70;99.90;;;;;;5028056;28;20245;-63
2022/12/26 02:27:17;;;;;;;6.63;5.37;;;9.70;99.90;;;;;;5036540;28;20206;-62
2022/12/26 02:30:20;;;;;;;5.27;4.80;;;9.70;99.90;;;;;;5031426;28;20234;-64
2022/12/26 02:32:52;;;;;;;6.77;4.93;;;9.80;99.90;;;;;;5035234;28;20228;-64
2022/12/26 02:35:18;;;;;;;5.37;4.47;;;9.80;99.90;;;;;;5037328;28;20207;-63
2022/12/26 02:37:52;;;;;;;6.40;5.10;;;9.80;99.90;;;;;;5037706;28;20265;-63
2022/12/26 02:40:33;;;;;;;8.00;5.53;;;9.90;99.90;;;;;;5035444;28;20232;-63
2022/12/26 02:43:11;;;;;;;4.63;4.10;;;9.90;99.90;;;;;;5037316;28;20285;-61
2022/12/26 02:49:10;;;;;;;5.57;4.67;;;10.00;99.90;;;;;;5037074;28;20263;-62
2022/12/26 03:13:09;;;;;;;5.23;4.83;;;10.00;99.90;;;;;;5037062;28;21036;-62
2022/12/26 03:15:07;;;;;;;4.27;3.87;;;10.10;99.90;;;;;;5030702;28;20576;-62
2022/12/26 03:17:39;;;;;;;6.97;4.37;;;10.10;99.90;;;;;;5036377;28;20190;-64
2022/12/26 03:20:10;;;;;;;3.97;3.67;;;10.10;99.90;;;;;;5036696;28;20210;-63
2022/12/26 03:22:39;;;;;;;3.87;3.57;;;10.10;99.90;;;;;;5036421;28;20206;-63
2022/12/26 03:27:54;;;;;;;4.37;4.00;;;10.20;99.90;;;;;;5036180;28;20206;-64
2022/12/26 03:33:04;;;;;;;4.60;3.50;;;10.20;99.90;;;;;;5024691;28;20207;-63
2022/12/26 03:35:32;;;;;;;4.07;3.70;;;10.30;99.90;;;;;;5025420;28;20866;-63
2022/12/26 03:38:06;;;;;;;5.33;4.47;;;10.30;99.90;;;;;;5025766;28;20302;-64
2022/12/26 04:44:31;;;;;;;3.13;2.83;;;11.20;99.90;;;;;;5032558;28;20226;-71
2022/12/26 04:46:57;;;;;;;3.47;3.17;;;11.20;99.90;;;;;;5031768;28;20261;-73
2022/12/26 04:52:10;;;;;;;6.33;3.07;;;11.10;99.90;;;;;;5031830;28;20234;-72
2022/12/26 04:54:35;;;;;;;3.43;2.93;;;11.10;99.90;;;;;;5030423;28;20234;-74
2022/12/26 04:57:01;;;;;;;4.07;3.50;;;11.10;99.90;;;;;;5031516;28;20233;-74
2022/12/26 04:59:26;;;;;;;3.73;3.43;;;11.10;99.90;;;;;;5031396;28;20226;-73
2022/12/26 05:10:14;;;;;;;3.97;3.23;;;11.10;99.90;;;;;;5040407;28;20276;-74
2022/12/26 05:12:39;;;;;;;6.87;3.77;;;11.10;99.90;;;;;;5041716;28;20230;-75
2022/12/26 05:15:05;;;;;;;3.63;3.33;;;11.20;99.90;;;;;;5041794;28;20198;-74
2022/12/26 05:28:40;;;;;;;3.70;3.40;;;11.10;99.90;;;;;;5042170;28;20310;-76
2022/12/26 05:28:55;;;;;;;3.63;3.10;;;11.10;99.90;;;;;;5039910;28;20229;-77
2022/12/26 05:31:20;;;;;;;3.50;3.23;;;11.10;99.90;;;;;;5041235;28;20229;-77
2022/12/26 05:34:04;;;;;;;5.07;3.47;;;11.10;99.90;;;;;;5041695;28;20202;-76
2022/12/26 05:36:34;;;;;;;3.03;2.83;;;11.10;99.90;;;;;;5036830;28;20216;-75
2022/12/26 05:39:00;;;;;;;3.03;2.73;;;11.10;99.90;;;;;;5040735;28;20214;-73
2022/12/26 05:41:26;;;;;;;2.90;2.70;;;11.10;99.90;;;;;;5038922;28;20202;-75
2022/12/26 05:43:51;;;;;;;3.30;2.97;;;11.10;99.90;;;;;;5034975;28;20515;-76
2022/12/26 05:46:17;;;;;;;3.83;3.50;;;11.10;99.90;;;;;;5028133;28;20195;-76
2022/12/26 05:48:43;;;;;;;8.10;3.47;;;11.10;99.90;;;;;;5031008;28;20250;-76
2022/12/26 05:51:08;;;;;;;3.33;3.03;;;11.10;99.90;;;;;;5033429;28;20227;-76
2022/12/26 05:53:34;;;;;;;3.77;3.37;;;11.00;99.90;;;;;;5038196;28;20206;-73
2022/12/26 05:56:12;;;;;;;4.07;3.63;;;11.00;99.90;;;;;;5038167;28;20190;-72
2022/12/26 05:58:38;;;;;;;4.63;3.87;;;11.00;99.90;;;;;;5026671;28;20214;-72
2022/12/26 06:01:10;;;;;;;5.57;3.30;;;11.00;99.90;;;;;;5028093;28;20209;-74
2022/12/26 06:03:36;;;;;;;3.30;3.00;;;11.00;99.90;;;;;;5027043;28;20547;-72
2022/12/26 06:06:03;;;;;;;5.50;3.63;;;11.00;99.90;;;;;;5027895;28;20277;-73
2022/12/26 06:08:29;;;;;;;4.27;3.60;;;11.00;99.90;;;;;;5028182;28;20299;-74
2022/12/26 06:10:54;;;;;;;5.00;2.90;;;11.00;99.90;;;;;;5028189;28;20295;-75
2022/12/26 06:13:20;;;;;;;3.30;3.00;;;11.10;99.90;;;;;;5028273;28;20223;-75
2022/12/26 06:15:45;;;;;;;3.13;2.93;;;11.10;99.90;;;;;;5026216;28;20203;-76
2022/12/26 06:18:10;;;;;;;3.63;3.37;;;11.20;99.90;;;;;;5027571;28;20203;-74
2022/12/26 06:20:39;;;;;;;3.37;3.07;;;11.20;99.90;;;;;;5027534;28;20728;-74
2022/12/26 06:23:05;;;;;;;3.37;3.07;;;11.10;99.90;;;;;;5027588;28;20288;-75
2022/12/26 06:25:31;;;;;;;3.60;3.30;;;11.10;99.90;;;;;;5027311;28;20357;-75
2022/12/26 06:27:56;;;;;;;3.27;2.97;;;11.10;99.90;;;;;;5027306;28;20242;-74
2022/12/26 06:30:22;;;;;;;5.57;3.17;;;11.10;99.90;;;;;;5026561;28;20211;-73
2022/12/26 06:32:47;;;;;;;3.30;3.00;;;11.10;99.90;;;;;;5027737;28;20250;-73
2022/12/26 06:35:13;;;;;;;3.10;2.90;;;11.20;99.90;;;;;;5028269;28;20204;-74
2022/12/26 06:37:38;;;;;;;5.27;2.93;;;11.20;99.90;;;;;;5027624;28;20200;-74
2022/12/26 06:40:04;;;;;;;3.53;3.23;;;11.10;99.90;;;;;;5029247;28;20253;-69
2022/12/26 06:42:30;;;;;;;3.20;2.93;;;11.10;99.90;;;;;;5025243;28;20214;-73
2022/12/26 06:44:55;;;;;;;4.07;3.07;;;11.10;99.90;;;;;;5026984;28;20733;-76
2022/12/26 06:47:21;;;;;;;3.57;3.27;;;11.20;99.90;;;;;;5027256;28;20199;-81
2022/12/26 06:49:46;;;;;;;3.67;2.83;;;11.20;99.90;;;;;;5026833;28;20623;-75
2022/12/26 06:52:13;;;;;;;3.27;2.97;;;11.20;99.90;;;;;;5026649;28;20218;-75
2022/12/26 06:54:39;;;;;;;3.47;3.10;;;11.20;99.90;;;;;;5024783;28;20207;-74
2022/12/26 06:57:05;;;;;;;3.13;2.83;;;11.20;99.90;;;;;;5027684;28;20252;-76
2022/12/26 06:59:30;;;;;;;3.17;2.87;;;11.10;99.90;;;;;;5026193;28;20210;-76
2022/12/26 07:01:55;;;;;;;3.63;3.33;;;11.10;99.90;;;;;;5025897;28;20206;-77
2022/12/26 07:04:21;;;;;;;2.83;2.63;;;11.10;99.90;;;;;;5034901;28;20201;-75
2022/12/26 07:06:46;;;;;;;4.17;2.93;;;11.10;99.90;;;;;;5027603;28;20207;-75
2022/12/26 07:09:15;;;;;;;4.23;3.53;;;11.10;99.90;;;;;;5025914;28;20204;-74
2022/12/26 07:11:43;;;;;;;3.40;3.10;;;11.10;99.90;;;;;;5026845;28;20216;-77
2022/12/26 07:14:09;;;;;;;7.60;3.07;;;11.20;99.90;;;;;;5025944;28;20231;-71
2022/12/26 07:16:36;;;;;;;3.40;3.10;;;11.20;99.90;;;;;;5026498;28;20746;-73
2022/12/26 07:19:02;;;;;;;3.73;3.03;;;11.10;99.90;;;;;;5026496;28;20609;-72
2022/12/26 07:21:27;;;;;;;3.20;3.00;;;11.10;99.90;;;;;;5025512;28;20219;-71
2022/12/26 07:23:54;;;;;;;4.23;2.60;;;11.10;99.90;;;;;;5026581;28;20223;-71
2022/12/26 07:26:20;;;;;;;3.13;2.83;;;11.10;99.90;;;;;;5026495;28;20222;-71
2022/12/26 07:28:46;;;;;;;5.27;3.00;;;11.20;99.90;;;;;;5031261;28;20825;-71
2022/12/26 07:31:16;;;;;;;3.33;3.03;;;11.10;99.90;;;;;;5036555;28;20281;-72
2022/12/26 07:33:42;;;;;;;3.03;2.73;;;11.20;99.90;;;;;;5035190;28;20214;-72
2022/12/26 07:36:07;;;;;;;2.87;2.67;;;11.20;99.90;;;;;;5035649;28;20672;-74
2022/12/26 07:38:33;;;;;;;3.40;3.13;;;11.10;99.90;;;;;;5036340;28;20213;-72
2022/12/26 07:41:56;;;;;;;3.00;2.70;;;11.10;99.90;;;;;;5036154;28;20209;-73
2022/12/26 07:43:45;;;;;;;3.30;3.03;;;11.10;99.90;;;;;;5034863;28;20319;-77
2022/12/26 07:46:10;;;;;;;2.80;2.60;;;11.00;99.90;;;;;;5036103;28;20209;-77
2022/12/26 07:48:36;;;;;;;3.27;2.97;;;11.10;99.90;;;;;;5036368;28;20198;-78
2022/12/26 07:51:01;;;;;;;4.27;3.20;;;11.10;99.90;;;;;;5036073;28;20540;-78
2022/12/26 07:53:28;;;;;;;3.20;2.90;;;11.00;99.90;;;;;;5035073;28;20195;-76
2022/12/26 07:55:58;;;;;;;3.37;3.17;;;11.00;99.90;;;;;;5026862;28;20254;-77
2022/12/26 07:58:23;;;;;;;2.70;2.50;;;11.00;99.90;;;;;;5035860;28;20195;-77
2022/12/26 08:00:49;;;;;;;4.77;3.07;;;11.10;99.90;;;;;;5036097;28;20538;-77
2022/12/26 08:03:14;;;;;;;3.47;3.17;;;11.10;99.90;;;;;;5035097;28;20200;-75
2022/12/26 08:05:44;;;;;;;3.17;2.87;;;11.10;99.90;;;;;;5033830;28;20213;-75
2022/12/26 08:08:09;;;;;;;3.43;3.13;;;11.00;99.90;;;;;;5035783;28;20211;-75
2022/12/26 08:10:35;;;;;;;3.37;3.07;;;11.00;99.90;;;;;;5035803;28;20205;-74
2022/12/26 08:13:00;;;;;;;5.33;3.43;;;11.00;99.90;;;;;;5035533;28;20702;-77
2022/12/26 08:15:26;;;;;;;3.20;2.90;;;11.00;99.90;;;;;;5035705;28;20201;-76
2022/12/26 08:17:51;;;;;;;3.20;2.90;;;11.00;99.90;;;;;;5032219;28;20557;-77
2022/12/26 08:20:17;;;;;;;3.27;3.03;;;11.10;99.90;;;;;;5023943;28;20206;-76
2022/12/26 08:22:42;;;;;;;3.23;2.97;;;11.10;99.90;;;;;;5025256;28;20288;-77
2022/12/26 08:25:08;;;;;;;3.67;3.33;;;11.00;99.90;;;;;;5025490;28;20585;-77
2022/12/26 08:27:34;;;;;;;3.47;3.17;;;11.00;99.90;;;;;;5026039;28;20569;-77
2022/12/26 08:29:59;;;;;;;3.10;2.90;;;11.00;99.90;;;;;;5025456;28;20230;-76
2022/12/26 08:32:25;;;;;;;2.47;2.27;;;11.00;99.90;;;;;;5026824;28;20221;-77
2022/12/26 08:34:50;;;;;;;3.03;2.70;;;11.10;99.90;;;;;;5035488;28;20207;-77
2022/12/26 08:37:16;;;;;;;2.00;1.90;;;11.10;99.90;;;;;;5030912;28;20207;-76
2022/12/26 08:39:42;;;;;;;2.23;2.10;;;11.10;99.90;;;;;;5024171;28;20683;-75
2022/12/26 08:42:07;;;;;;;2.70;2.37;;;11.10;99.90;;;;;;5024291;28;20279;-77
2022/12/26 08:44:33;;;;;;;3.07;2.20;;;11.20;99.90;;;;;;5025685;28;20695;-75
2022/12/26 08:46:58;;;;;;;2.70;2.50;;;11.20;99.90;;;;;;5025482;28;20232;-76
2022/12/26 08:49:24;;;;;;;2.80;2.60;;;11.10;99.90;;;;;;5025155;28;20204;-75
2022/12/26 08:51:49;;;;;;;2.60;2.40;;;11.10;99.90;;;;;;5024370;28;20216;-76
2022/12/26 08:54:15;;;;;;;5.90;4.67;;;11.10;99.90;;;;;;5027888;28;20911;-74
2022/12/26 08:56:40;;;;;;;3.17;2.30;;;11.10;99.90;;;;;;5021755;28;20566;-75
2022/12/26 08:59:06;;;;;;;2.80;2.60;;;11.10;99.90;;;;;;5031689;28;20254;-75
2022/12/26 09:01:31;;;;;;;2.83;2.20;;;11.10;99.90;;;;;;5032006;28;20230;-76
2022/12/26 09:03:59;;;;;;;2.70;2.30;;;11.00;99.90;;;;;;5034424;28;20260;-75
2022/12/26 09:06:25;;;;;;;5.30;2.20;;;11.00;99.90;;;;;;5035008;28;20203;-76
2022/12/26 09:08:51;;;;;;;3.77;2.43;;;11.10;99.90;;;;;;5035144;28;20317;-75
2022/12/26 09:11:21;;;;;;;2.37;2.20;;;11.10;99.90;;;;;;5034628;28;20276;-75
2022/12/26 09:13:47;;;;;;;2.03;1.93;;;11.10;99.90;;;;;;5032852;28;20208;-75
2022/12/26 09:16:18;;;;;;;2.50;2.30;;;11.10;99.90;;;;;;5037330;28;20261;-75
2022/12/26 09:18:45;;;;;;;2.90;2.60;;;11.20;99.90;;;;;;5026572;28;20673;-75
2022/12/26 09:21:12;;;;;;;2.67;2.47;;;11.20;99.90;;;;;;5028630;28;20258;-76
2022/12/26 09:23:39;;;;;;;2.80;2.43;;;11.20;99.90;;;;;;5027582;28;20214;-76
2022/12/26 09:26:07;;;;;;;2.97;2.70;;;11.20;99.90;;;;;;5024855;28;20371;-76
2022/12/26 09:28:33;;;;;;;2.57;2.37;;;11.30;99.90;;;;;;5029247;28;20270;-73
2022/12/26 09:31:03;;;;;;;2.67;2.47;;;11.30;99.90;;;;;;5033812;28;20670;-74
2022/12/26 09:33:32;;;;;;;4.10;2.63;;;11.30;99.90;;;;;;5035815;28;20195;-75
2022/12/26 09:35:57;;;;;;;3.83;2.80;;;11.30;99.90;;;;;;5034395;28;20310;-73
2022/12/26 09:38:23;;;;;;;4.73;2.80;;;11.30;99.90;;;;;;5026215;28;20314;-74
2022/12/26 09:41:18;;;;;;;2.20;2.10;;;11.30;99.90;;;;;;5027864;28;20350;-73
2022/12/26 09:44:12;;;;;;;3.27;2.97;;;11.30;99.90;;;;;;5026984;28;20206;-73
2022/12/26 09:47:18;;;;;;;3.00;2.80;;;11.30;99.90;;;;;;5036415;28;20208;-71
2022/12/26 09:49:52;;;;;;;3.33;3.07;;;11.30;99.90;;;;;;5001324;28;20649;-72
2022/12/26 09:52:22;;;;;;;3.00;2.80;;;11.40;99.90;;;;;;5036855;28;20677;-72
2022/12/26 09:54:59;;;;;;;2.23;2.10;;;11.30;99.90;;;;;;5028989;28;20212;-75
2022/12/26 09:57:35;;;;;;;2.90;2.70;;;11.30;99.90;;;;;;5030441;28;20203;-74
2022/12/26 10:00:04;;;;;;;6.43;3.13;;;11.30;99.90;;;;;;5037932;28;20203;-77
2022/12/26 10:02:30;;;;;;;2.90;2.53;;;11.30;99.90;;;;;;5035498;28;20210;-73
2022/12/26 10:04:55;;;;;;;4.73;3.10;;;11.30;99.90;;;;;;5037641;28;20207;-75
2022/12/26 10:07:39;;;;;;;4.63;3.17;;;11.40;99.90;;;;;;5031270;28;20201;-73
2022/12/26 10:10:23;;;;;;;2.70;2.50;;;11.40;99.90;;;;;;5025539;28;20397;-73
2022/12/26 10:12:59;;;;;;;2.87;2.40;;;11.40;99.90;;;;;;5027940;28;20225;-73
2022/12/26 10:15:44;;;;;;;4.13;2.23;;;11.40;99.90;;;;;;5027089;28;20221;-74
2022/12/26 10:18:31;;;;;;;2.40;2.20;;;11.30;99.90;;;;;;5026229;28;20206;-78
2022/12/26 10:21:39;;;;;;;2.73;2.50;;;11.40;99.90;;;;;;5028072;28;20211;-74
2022/12/26 10:24:20;;;;;;;2.67;2.30;;;11.40;99.90;;;;;;5020009;28;20223;-74
2022/12/26 10:26:50;;;;;;;2.57;2.07;;;11.50;99.90;;;;;;5027132;28;20231;-75
2022/12/26 10:29:24;;;;;;;2.23;2.07;;;11.40;99.90;;;;;;5025858;28;20195;-74
2022/12/26 10:31:58;;;;;;;2.10;1.90;;;11.40;99.90;;;;;;5026884;28;20242;-75
2022/12/26 10:34:40;;;;;;;2.53;2.33;;;11.20;99.90;;;;;;5033157;28;20204;-72
2022/12/26 10:37:30;;;;;;;2.77;2.50;;;11.10;99.90;;;;;;5025443;28;20308;-74
2022/12/26 10:40:10;;;;;;;2.43;2.20;;;11.20;99.90;;;;;;5027021;28;20196;-72
2022/12/26 10:42:43;;;;;;;2.80;2.60;;;11.20;99.90;;;;;;5026347;28;20208;-64
2022/12/26 10:45:16;;;;;;;2.80;2.60;;;11.20;99.90;;;;;;5027708;28;20771;-63
2022/12/26 10:47:45;;;;;;;5.97;2.87;;;11.20;99.90;;;;;;5027924;28;20219;-64
2022/12/26 10:50:17;;;;;;;4.37;2.20;;;11.30;99.90;;;;;;5024782;28;20219;-65
2022/12/26 10:52:43;;;;;;;2.23;1.93;;;11.30;99.90;;;;;;5026803;28;20250;-65
2022/12/26 10:55:13;;;;;;;2.77;1.90;;;11.20;99.90;;;;;;5028694;28;20243;-66
2022/12/26 10:57:41;;;;;;;2.10;1.90;;;11.30;99.90;;;;;;5022848;28;20218;-64
2022/12/26 11:00:23;;;;;;;2.47;2.27;;;11.30;99.90;;;;;;5025170;28;20277;-65
2022/12/26 11:03:13;;;;;;;2.23;2.03;;;11.40;99.90;;;;;;5026995;28;20216;-63
2022/12/26 11:05:50;;;;;;;3.20;1.93;;;11.30;99.90;;;;;;5025832;28;20670;-64
2022/12/26 11:08:24;;;;;;;2.00;1.90;;;11.30;99.90;;;;;;5022700;28;20192;-63
2022/12/26 11:11:11;;;;;;;2.37;2.17;;;11.20;99.90;;;;;;5026641;28;20237;-63
2022/12/26 11:13:53;;;;;;;2.43;2.10;;;11.10;99.90;;;;;;5026729;28;20249;-64
2022/12/26 11:16:31;;;;;;;2.27;2.10;;;11.00;99.90;;;;;;5025483;28;20206;-65
2022/12/26 11:18:57;;;;;;;4.23;1.93;;;10.90;99.90;;;;;;5027137;28;20589;-65
2022/12/26 11:21:25;;;;;;;2.30;2.10;;;11.00;99.90;;;;;;5032235;28;20224;-65
2022/12/26 11:24:09;;;;;;;2.40;2.20;;;11.00;99.90;;;;;;5034190;28;20703;-64
2022/12/26 11:26:38;;;;;;;2.13;1.97;;;11.00;99.90;;;;;;5036486;28;20302;-64
2022/12/26 11:29:05;;;;;;;2.47;2.27;;;11.10;99.90;;;;;;5036583;28;20196;-65
2022/12/26 11:31:31;;;;;;;2.27;2.07;;;11.00;99.90;;;;;;5035821;28;20227;-64
2022/12/26 11:34:00;;;;;;;2.43;2.20;;;11.00;99.90;;;;;;5036618;28;21325;-63
2022/12/26 11:36:27;;;;;;;1.90;1.80;;;11.00;99.90;;;;;;5036257;28;20275;-74
2022/12/26 11:38:59;;;;;;;2.30;2.20;;;11.00;99.90;;;;;;5033089;28;20794;-65
2022/12/26 11:41:30;;;;;;;2.80;2.40;;;11.00;99.90;;;;;;5036035;28;20252;-65
2022/12/26 11:44:11;;;;;;;3.10;2.30;;;11.00;99.90;;;;;;5036566;28;20241;-65
2022/12/26 11:46:40;;;;;;;2.40;2.20;;;11.10;99.90;;;;;;5036217;28;20219;-65
2022/12/26 11:49:20;;;;;;;1.87;1.73;;;11.20;99.90;;;;;;5033170;28;20934;-65
2022/12/26 11:51:47;;;;;;;1.90;1.80;;;11.20;99.90;;;;;;5026687;28;20298;-66
2022/12/26 11:54:32;;;;;;;2.60;2.40;;;11.20;99.90;;;;;;5036156;28;20966;-66
2022/12/26 11:57:03;;;;;;;2.70;2.50;;;11.40;99.90;;;;;;5035096;28;20199;-64
2022/12/26 11:59:28;;;;;;;2.30;2.10;;;11.40;99.90;;;;;;5036301;28;20332;-64
2022/12/26 12:02:18;;;;;;;2.47;2.27;;;11.40;99.90;;;;;;5035829;28;20227;-65
2022/12/26 12:04:45;;;;;;;2.20;2.10;;;11.30;99.90;;;;;;5036293;28;20234;-65
2022/12/26 12:07:16;;;;;;;2.67;2.47;;;11.30;99.90;;;;;;5035443;28;20208;-64
2022/12/26 12:10:02;;;;;;;3.20;2.90;;;11.30;99.90;;;;;;5033480;28;20310;-65
2022/12/26 12:12:31;;;;;;;2.93;2.67;;;11.30;99.90;;;;;;5035880;28;20240;-65
2022/12/26 12:15:23;;;;;;;3.83;3.43;;;11.30;99.90;;;;;;5034254;28;20658;-63
2022/12/26 12:18:18;;;;;;;3.50;3.20;;;11.30;99.90;;;;;;5033063;28;20230;-62
2022/12/26 12:21:03;;;;;;;4.37;3.07;;;11.30;99.90;;;;;;5033871;28;20693;-62
2022/12/26 12:23:31;;;;;;;5.53;3.10;;;11.20;99.90;;;;;;5035489;28;20198;-63
2022/12/26 12:25:57;;;;;;;3.67;3.37;;;11.10;99.90;;;;;;5035155;28;20207;-64
2022/12/26 12:29:04;;;;;;;3.30;3.00;;;11.10;99.90;;;;;;5023515;28;20225;-65
2022/12/26 12:31:41;;;;;;;4.87;3.37;;;11.10;99.90;;;;;;5025949;28;20237;-64
2022/12/26 12:34:33;;;;;;;4.33;3.57;;;11.10;99.90;;;;;;5039859;28;20205;-62
2022/12/26 12:37:01;;;;;;;3.13;2.83;;;11.10;99.90;;;;;;5040761;28;20285;-64
2022/12/26 12:39:56;;;;;;;4.10;3.07;;;11.20;99.90;;;;;;5032048;28;20200;-65
2022/12/26 12:43:01;;;;;;;3.43;2.67;;;11.10;99.90;;;;;;5035648;28;20209;-64
2022/12/26 12:45:51;;;;;;;2.83;2.63;;;11.20;99.90;;;;;;5035852;28;20222;-63
2022/12/26 12:49:01;;;;;;;3.20;2.87;;;11.20;99.90;;;;;;5035644;28;20751;-65
2022/12/26 12:51:33;;;;;;;3.60;3.03;;;11.20;99.90;;;;;;5037430;28;20688;-64
2022/12/26 12:54:20;;;;;;;2.97;2.67;;;11.30;99.90;;;;;;5039118;28;20674;-65
2022/12/26 12:57:04;;;;;;;3.00;2.80;;;11.30;99.90;;;;;;5039603;28;20233;-65
2022/12/26 13:00:01;;;;;;;4.63;2.93;;;11.30;99.90;;;;;;5038860;28;20608;-64
2022/12/26 13:02:52;;;;;;;3.23;2.80;;;11.40;99.90;;;;;;5022819;28;20224;-65
2022/12/26 13:05:26;;;;;;;2.80;2.57;;;11.40;99.90;;;;;;5029291;28;20207;-73
2022/12/26 13:08:00;;;;;;;2.50;2.37;;;11.30;99.90;;;;;;5025643;28;20219;-65
2022/12/26 13:10:32;;;;;;;4.63;2.70;;;11.30;99.90;;;;;;5029620;28;20735;-65
2022/12/26 13:13:11;;;;;;;4.70;2.30;;;11.30;99.90;;;;;;5027222;28;20213;-65
2022/12/26 13:15:45;;;;;;;2.97;2.77;;;11.30;99.90;;;;;;5029172;28;20208;-64
2022/12/26 13:18:17;;;;;;;2.53;2.27;;;11.20;99.90;;;;;;5027840;28;21091;-65
2022/12/26 13:20:50;;;;;;;2.80;2.60;;;11.20;99.90;;;;;;5029960;28;20228;-65
2022/12/26 13:26:19;;;;;;;3.37;3.07;;;11.20;99.90;;;;;;5034554;28;20348;-70
2022/12/26 13:29:01;;;;;;;2.50;2.30;;;11.30;99.90;;;;;;5035029;28;20203;-66
2022/12/26 13:31:33;;;;;;;2.47;2.27;;;11.30;99.90;;;;;;5038937;28;20214;-73
2022/12/26 13:33:59;;;;;;;3.77;3.07;;;11.30;99.90;;;;;;5039165;28;20204;-76
2022/12/26 13:36:41;;;;;;;2.47;2.27;;;11.30;99.90;;;;;;5038780;28;20200;-65
2022/12/26 13:39:06;;;;;;;2.70;2.50;;;11.20;99.90;;;;;;5038960;28;20194;-65
2022/12/26 13:44:18;;;;;;;3.40;3.00;;;11.20;99.90;;;;;;5038966;28;20292;-65
2022/12/26 13:46:46;;;;;;;3.67;2.80;;;11.20;99.90;;;;;;5038395;28;20768;-66
2022/12/26 13:49:38;;;;;;;4.00;3.00;;;11.20;99.90;;;;;;5035102;28;20218;-66
2022/12/26 13:52:10;;;;;;;3.00;2.70;;;11.20;99.90;;;;;;5035529;28;20861;-65
2022/12/26 13:54:57;;;;;;;2.67;2.47;;;11.10;99.90;;;;;;5038304;28;20227;-64
2022/12/26 13:57:37;;;;;;;3.63;2.70;;;11.10;99.90;;;;;;5037867;28;21059;-70
2022/12/26 14:00:14;;;;;;;2.80;2.60;;;11.20;99.90;;;;;;5037318;28;20211;-72
2022/12/26 14:03:19;;;;;;;3.10;2.87;;;11.10;99.90;;;;;;5038119;28;20313;-71
2022/12/26 14:06:18;;;;;;;2.70;2.50;;;11.00;99.90;;;;;;5037444;28;20200;-71
2022/12/26 14:09:08;;;;;;;3.83;3.53;;;10.90;99.90;;;;;;5037785;28;20680;-68
2022/12/26 14:12:01;;;;;;;3.53;3.20;;;10.90;99.90;;;;;;5033183;28;20256;-73
2022/12/26 14:14:32;;;;;;;2.93;2.73;;;10.80;99.90;;;;;;5037478;28;20282;-72
2022/12/26 14:17:31;;;;;;;3.40;3.10;;;10.80;99.90;;;;;;5033782;28;20239;-71
2022/12/26 14:20:37;;;;;;;4.43;3.03;;;10.70;99.90;;;;;;5025910;28;20746;-72
2022/12/26 14:23:26;;;;;;;3.20;2.90;;;10.60;99.90;;;;;;5026260;28;20195;-69
2022/12/26 14:25:56;;;;;;;4.03;3.60;;;10.50;99.90;;;;;;5016417;28;20297;-70
2022/12/26 14:28:33;;;;;;;3.70;3.40;;;10.50;99.90;;;;;;5025471;28;20901;-72
2022/12/26 14:31:21;;;;;;;3.40;3.10;;;10.40;99.90;;;;;;5026848;28;20473;-72
2022/12/26 14:34:09;;;;;;;3.63;3.33;;;10.30;99.90;;;;;;5023930;28;20215;-72
2022/12/26 14:36:55;;;;;;;3.83;3.53;;;10.30;99.90;;;;;;5031427;28;20226;-72
2022/12/26 14:39:38;;;;;;;3.20;3.00;;;10.20;99.90;;;;;;5036059;28;20373;-72
2022/12/26 14:44:56;;;;;;;3.40;2.97;;;10.20;99.90;;;;;;5024739;28;20327;-71
2022/12/26 14:47:39;;;;;;;3.33;3.03;;;10.20;99.90;;;;;;5026383;28;20673;-71
2022/12/26 14:50:33;;;;;;;3.43;3.13;;;10.20;99.90;;;;;;5030257;28;20207;-72
2022/12/26 14:53:23;;;;;;;3.43;3.17;;;10.20;99.90;;;;;;5036708;28;20214;-71
2022/12/26 14:56:09;;;;;;;3.37;2.83;;;10.30;99.90;;;;;;5036468;28;20210;-71
2022/12/26 14:58:40;;;;;;;3.10;2.87;;;10.30;99.90;;;;;;5030062;28;20522;-71
2022/12/26 15:01:09;;;;;;;4.17;2.67;;;10.30;99.90;;;;;;5026475;28;20680;-71
2022/12/26 15:04:07;;;;;;;4.23;3.20;;;10.30;99.90;;;;;;5025945;28;20202;-72
2022/12/26 15:07:00;;;;;;;3.17;2.90;;;10.40;99.90;;;;;;5026061;28;20203;-72
2022/12/26 15:09:44;;;;;;;3.00;2.80;;;10.40;99.90;;;;;;5026350;28;20207;-72
2022/12/26 15:12:39;;;;;;;3.30;3.00;;;10.30;99.90;;;;;;5023368;28;20685;-72
2022/12/26 15:15:36;;;;;;;4.07;3.00;;;10.40;99.90;;;;;;5010421;28;20502;-72
2022/12/26 15:18:34;;;;;;;3.63;3.17;;;10.40;99.90;;;;;;5027315;28;20215;-72
2022/12/26 15:21:27;;;;;;;4.00;3.60;;;10.40;99.90;;;;;;5029236;28;20205;-71
2022/12/26 15:24:26;;;;;;;4.33;3.20;;;10.40;99.90;;;;;;4991110;28;20934;-68